createdAt,value
2019-03-04T00:01:13.512Z,4.70
2019-03-04T00:03:40.973Z,6.83
2019-03-04T00:06:08.397Z,6.90
2019-03-04T00:08:35.822Z,4.28
2019-03-04T00:11:03.280Z,4.42
2019-03-04T00:13:30.718Z,5.47
2019-03-04T00:15:58.143Z,6.70
2019-03-04T00:18:25.599Z,2.33
2019-03-04T00:20:53.028Z,4.03
2019-03-04T00:23:20.456Z,5.75
2019-03-04T00:25:48.012Z,4.45
2019-03-04T00:28:15.415Z,4.42
2019-03-04T00:30:42.620Z,5.45
2019-03-04T00:35:36.952Z,2.55
2019-03-04T00:38:04.413Z,5.17
2019-03-04T00:40:31.765Z,2.15
2019-03-04T00:42:59.200Z,4.08
2019-03-04T00:45:26.644Z,3.40
2019-03-04T00:47:54.089Z,3.20
2019-03-04T00:50:21.526Z,4.60
2019-03-04T00:52:49.048Z,5.50
2019-03-04T00:55:16.783Z,2.62
2019-03-04T00:57:44.273Z,5.83
2019-03-04T01:00:16.863Z,4.75
2019-03-04T01:02:44.294Z,4.42
2019-03-04T01:05:11.745Z,3.80
2019-03-04T01:07:39.213Z,3.80
2019-03-04T01:10:06.832Z,2.55
2019-03-04T01:12:34.307Z,5.30
2019-03-04T01:15:01.737Z,2.72
2019-03-04T01:17:29.165Z,2.65
2019-03-04T01:19:56.607Z,2.92
2019-03-04T01:22:24.025Z,2.33
2019-03-04T01:24:51.617Z,4.17
2019-03-04T01:27:19.097Z,2.40
2019-03-04T01:29:46.516Z,4.10
2019-03-04T01:32:14.118Z,7.00
2019-03-04T01:34:41.536Z,2.42
2019-03-04T01:37:08.755Z,2.58
2019-03-04T01:42:03.138Z,1.52
2019-03-04T01:44:30.565Z,1.85
2019-03-04T01:46:58.008Z,1.70
2019-03-04T01:49:25.246Z,1.60
2019-03-04T01:54:19.590Z,1.70
2019-03-04T01:56:47.044Z,0.90
2019-03-04T01:59:14.494Z,1.77
2019-03-04T02:01:41.900Z,1.80
2019-03-04T02:04:09.326Z,1.92
2019-03-04T02:06:36.781Z,1.92
2019-03-04T02:09:05.786Z,0.72
2019-03-04T02:11:33.278Z,1.32
2019-03-04T02:14:00.688Z,3.10
2019-03-04T02:16:28.365Z,0.95
2019-03-04T02:18:55.791Z,1.35
2019-03-04T02:21:23.240Z,4.33
2019-03-04T02:23:50.677Z,0.90
2019-03-04T02:26:24.235Z,1.52
2019-03-04T02:28:51.711Z,1.45
2019-03-04T02:31:19.204Z,1.75
2019-03-04T02:33:46.621Z,0.90
2019-03-04T02:36:14.076Z,1.20
2019-03-04T02:38:41.502Z,1.05
2019-03-04T02:41:08.925Z,1.70
2019-03-04T02:43:36.384Z,2.42
2019-03-04T02:46:03.812Z,1.42
2019-03-04T02:48:31.240Z,1.57
2019-03-04T02:50:58.877Z,3.33
2019-03-04T02:53:26.317Z,1.60
2019-03-04T02:55:53.754Z,3.80
2019-03-04T02:58:21.189Z,2.45
2019-03-04T03:00:48.689Z,1.50
2019-03-04T03:03:16.141Z,2.90
2019-03-04T03:05:43.600Z,2.75
2019-03-04T03:08:11.125Z,3.02
2019-03-04T03:10:38.564Z,1.65
2019-03-04T03:13:06.005Z,10.53
2019-03-04T03:15:33.441Z,4.45
2019-03-04T03:18:00.869Z,2.98
2019-03-04T03:20:28.458Z,2.33
2019-03-04T03:22:55.873Z,8.55
2019-03-04T03:25:23.314Z,2.92
2019-03-04T03:27:50.768Z,2.87
2019-03-04T03:30:18.302Z,3.65
2019-03-04T03:32:45.919Z,1.98
2019-03-04T03:35:13.385Z,2.17
2019-03-04T03:37:40.821Z,2.45
2019-03-04T03:40:09.707Z,2.92
2019-03-04T03:42:37.131Z,2.35
2019-03-04T03:45:05.409Z,1.82
2019-03-04T03:47:32.850Z,2.45
2019-03-04T03:50:00.404Z,2.98
2019-03-04T03:52:27.925Z,6.75
2019-03-04T03:54:55.380Z,2.75
2019-03-04T03:57:22.819Z,1.80
2019-03-04T03:59:50.243Z,2.72
2019-03-04T04:02:17.791Z,1.65
2019-03-04T04:04:45.217Z,2.55
2019-03-04T04:07:12.644Z,3.40
2019-03-04T04:09:40.093Z,2.33
2019-03-04T04:12:07.526Z,5.40
2019-03-04T04:14:34.969Z,3.92
2019-03-04T04:17:02.405Z,1.72
2019-03-04T04:19:29.837Z,2.62
2019-03-04T04:21:57.270Z,2.72
2019-03-04T04:24:24.725Z,3.85
2019-03-04T04:26:52.144Z,6.10
2019-03-04T04:29:19.707Z,1.42
2019-03-04T04:31:47.132Z,3.55
2019-03-04T04:34:14.557Z,2.75
2019-03-04T04:36:41.993Z,3.62
2019-03-04T04:39:09.441Z,4.83
2019-03-04T04:41:36.856Z,2.72
2019-03-04T04:44:04.300Z,3.87
2019-03-04T04:47:01.720Z,2.02
2019-03-04T04:49:30.840Z,1.90
2019-03-04T04:51:58.170Z,2.40
2019-03-04T04:54:25.593Z,2.65
2019-03-04T04:56:53.044Z,3.33
2019-03-04T04:59:20.461Z,2.08
2019-03-04T05:01:47.951Z,11.00
2019-03-04T05:04:15.392Z,1.42
2019-03-04T05:06:42.815Z,1.20
2019-03-04T05:09:10.260Z,2.22
2019-03-04T05:11:37.674Z,1.00
2019-03-04T05:14:05.140Z,1.50
2019-03-04T05:16:32.572Z,0.90
2019-03-04T05:19:00.017Z,1.40
2019-03-04T05:21:27.465Z,0.78
2019-03-04T05:23:54.903Z,4.83
2019-03-04T05:26:22.326Z,1.87
2019-03-04T05:28:49.817Z,1.62
2019-03-04T05:31:17.246Z,1.20
2019-03-04T05:33:44.689Z,2.50
2019-03-04T05:36:12.135Z,2.05
2019-03-04T05:38:39.556Z,4.30
2019-03-04T05:41:07.001Z,3.60
2019-03-04T05:43:34.465Z,2.62
2019-03-04T05:46:02.008Z,4.08
2019-03-04T05:48:29.448Z,3.05
2019-03-04T05:50:56.905Z,8.40
2019-03-04T05:53:24.355Z,4.67
2019-03-04T05:55:51.797Z,4.53
2019-03-04T05:58:19.291Z,6.83
2019-03-04T06:00:46.745Z,4.12
2019-03-04T06:03:14.729Z,1.60
2019-03-04T06:05:42.185Z,2.12
2019-03-04T06:08:09.742Z,2.80
2019-03-04T06:10:37.155Z,2.35
2019-03-04T06:13:04.608Z,5.92
2019-03-04T06:15:32.032Z,6.90
2019-03-04T06:17:59.485Z,4.60
2019-03-04T06:20:26.944Z,7.45
2019-03-04T06:22:54.384Z,5.50
2019-03-04T06:25:26.300Z,3.70
2019-03-04T06:27:53.724Z,3.40
2019-03-04T06:30:22.083Z,4.00
2019-03-04T06:32:49.584Z,5.37
2019-03-04T06:35:17.044Z,6.90
2019-03-04T06:37:44.475Z,5.83
2019-03-04T06:40:12.524Z,3.92
2019-03-04T06:42:39.985Z,3.98
2019-03-04T06:45:09.689Z,3.75
2019-03-04T06:47:37.122Z,5.40
2019-03-04T06:50:05.078Z,5.30
2019-03-04T06:52:32.500Z,8.70
2019-03-04T06:55:52.061Z,4.50
2019-03-04T06:58:19.501Z,1.87
2019-03-04T07:00:54.452Z,4.95
2019-03-04T07:03:28.020Z,7.65
2019-03-04T07:05:55.474Z,3.75
2019-03-04T07:09:05.229Z,3.62
2019-03-04T07:11:32.933Z,7.05
2019-03-04T07:14:00.370Z,2.35
2019-03-04T07:16:27.788Z,6.80
2019-03-04T07:18:55.405Z,4.85
2019-03-04T07:21:22.862Z,11.10
2019-03-04T07:23:50.296Z,7.58
2019-03-04T07:26:17.934Z,11.20
2019-03-04T07:28:45.376Z,5.00
2019-03-04T07:31:12.821Z,7.92
2019-03-04T07:33:40.185Z,6.83
2019-03-04T07:36:08.179Z,10.48
2019-03-04T07:38:56.148Z,14.93
2019-03-04T07:41:23.989Z,15.20
2019-03-04T07:43:51.452Z,8.73
2019-03-04T07:46:19.054Z,13.90
2019-03-04T07:48:46.480Z,8.80
2019-03-04T07:51:14.760Z,5.65
2019-03-04T07:53:46.307Z,5.70
2019-03-04T07:56:11.431Z,6.10
2019-03-04T07:58:38.903Z,6.53
2019-03-04T08:01:06.935Z,9.80
2019-03-04T08:03:35.062Z,9.00
2019-03-04T08:06:02.622Z,11.05
2019-03-04T08:08:30.051Z,16.42
2019-03-04T08:11:54.600Z,10.55
2019-03-04T08:14:22.026Z,13.78
2019-03-04T08:16:49.356Z,19.05
2019-03-04T08:19:16.761Z,12.90
2019-03-04T08:21:44.176Z,12.00
2019-03-04T08:24:11.614Z,14.05
2019-03-04T08:26:39.061Z,15.75
2019-03-04T08:29:06.809Z,18.17
2019-03-04T08:31:34.211Z,25.08
2019-03-04T08:34:01.786Z,19.48
2019-03-04T08:36:29.193Z,15.43
2019-03-04T08:38:56.607Z,10.48
2019-03-04T08:41:24.041Z,13.35
2019-03-04T08:43:51.463Z,15.55
2019-03-04T08:46:18.999Z,16.97
2019-03-04T08:48:46.461Z,21.57
2019-03-04T08:51:13.675Z,15.65
2019-03-04T08:56:08.001Z,10.15
2019-03-04T08:58:35.417Z,6.50
2019-03-04T09:01:02.848Z,8.80
2019-03-04T09:03:30.429Z,5.58
2019-03-04T09:05:57.856Z,3.75
2019-03-04T09:08:25.291Z,5.83
2019-03-04T09:10:52.740Z,6.17
2019-03-04T09:13:20.463Z,4.47
2019-03-04T09:15:47.900Z,8.45
2019-03-04T09:18:15.395Z,3.83
2019-03-04T09:20:42.808Z,5.42
2019-03-04T09:23:10.242Z,3.52
2019-03-04T09:25:43.941Z,6.05
2019-03-04T09:28:11.276Z,6.78
2019-03-04T09:30:38.737Z,2.22
2019-03-04T09:33:06.169Z,3.00
2019-03-04T09:35:33.602Z,4.10
2019-03-04T09:38:01.090Z,4.20
2019-03-04T09:40:29.107Z,2.62
2019-03-04T09:42:56.748Z,6.87
2019-03-04T09:45:24.201Z,4.20
2019-03-04T09:47:51.633Z,1.00
2019-03-04T09:50:19.113Z,2.05
2019-03-04T09:52:47.168Z,0.75
2019-03-04T09:55:14.882Z,2.27
2019-03-04T09:57:42.314Z,1.67
2019-03-04T10:00:28.733Z,0.60
2019-03-04T10:02:58.418Z,0.60
2019-03-04T10:06:03.777Z,1.87
2019-03-04T10:08:38.290Z,2.60
2019-03-04T10:12:00.045Z,1.90
2019-03-04T10:15:09.191Z,1.37
2019-03-04T10:18:14.633Z,3.15
2019-03-04T10:21:03.363Z,4.78
2019-03-04T10:23:59.505Z,4.22
2019-03-04T10:27:20.393Z,1.45
2019-03-04T10:30:15.092Z,2.58
2019-03-04T10:33:02.460Z,5.85
2019-03-04T10:36:15.965Z,2.37
2019-03-04T10:39:09.101Z,2.12
2019-03-04T10:42:14.320Z,4.50
2019-03-04T10:45:13.824Z,7.15
2019-03-04T10:47:41.261Z,5.33
2019-03-04T10:50:08.981Z,8.65
2019-03-04T10:52:36.428Z,6.67
2019-03-04T10:55:04.912Z,3.02
2019-03-04T10:57:32.502Z,7.15
2019-03-04T10:59:59.961Z,6.80
2019-03-04T11:02:27.402Z,5.05
2019-03-04T11:04:54.832Z,7.58
2019-03-04T11:07:22.307Z,6.53
2019-03-04T11:09:49.868Z,3.90
2019-03-04T11:12:17.328Z,6.30
2019-03-04T11:14:44.772Z,5.92
2019-03-04T11:17:12.232Z,5.72
2019-03-04T11:19:39.668Z,10.13
2019-03-04T11:22:07.120Z,7.55
2019-03-04T11:24:34.593Z,3.17
2019-03-04T11:27:02.025Z,6.95
2019-03-04T11:29:29.465Z,6.08
2019-03-04T11:31:56.892Z,9.48
2019-03-04T11:34:24.328Z,5.00
2019-03-04T11:36:51.777Z,9.93
2019-03-04T11:39:45.794Z,9.80
2019-03-04T11:42:13.304Z,13.20
2019-03-04T11:44:40.634Z,8.00
2019-03-04T11:47:08.101Z,9.20
2019-03-04T11:49:35.538Z,10.15
2019-03-04T11:52:02.954Z,10.45
2019-03-04T11:54:30.427Z,11.33
2019-03-04T11:56:57.869Z,8.60
2019-03-04T11:59:24.986Z,9.38
2019-03-04T12:01:52.445Z,10.63
2019-03-04T12:04:19.879Z,7.70
2019-03-04T12:06:47.308Z,5.35
2019-03-04T12:09:15.966Z,7.25
2019-03-04T12:11:43.420Z,11.35
2019-03-04T12:14:10.867Z,7.40
2019-03-04T12:16:38.316Z,8.25
2019-03-04T12:19:05.770Z,10.63
2019-03-04T12:21:33.198Z,7.22
2019-03-04T12:24:00.665Z,7.92
2019-03-04T12:26:28.092Z,3.90
2019-03-04T12:28:55.553Z,5.03
2019-03-04T12:31:25.390Z,10.70
2019-03-04T12:33:52.976Z,7.33
2019-03-04T12:36:20.422Z,6.05
2019-03-04T12:38:47.900Z,8.30
2019-03-04T12:41:15.336Z,6.90
2019-03-04T12:43:42.776Z,8.65
2019-03-04T12:46:10.236Z,6.40
2019-03-04T12:48:37.660Z,6.05
2019-03-04T12:51:05.084Z,7.58
2019-03-04T12:53:37.297Z,9.03
2019-03-04T12:56:01.903Z,8.15
2019-03-04T12:58:29.289Z,5.22
2019-03-04T13:00:56.766Z,5.37
2019-03-04T13:03:24.097Z,4.60
2019-03-04T13:05:51.536Z,6.50
2019-03-04T13:08:19.078Z,4.95
2019-03-04T13:10:46.513Z,6.30
2019-03-04T13:13:13.968Z,6.25
2019-03-04T13:15:41.408Z,6.15
2019-03-04T13:18:09.231Z,6.30
2019-03-04T13:20:36.688Z,4.10
2019-03-04T13:23:04.745Z,11.48
2019-03-04T13:25:32.160Z,6.58
2019-03-04T13:28:07.854Z,5.00
2019-03-04T13:30:28.850Z,7.58
2019-03-04T13:32:56.420Z,3.42
2019-03-04T13:35:24.949Z,6.08
2019-03-04T13:37:52.655Z,5.62
2019-03-04T13:40:20.116Z,3.80
2019-03-04T13:42:49.517Z,5.47
2019-03-04T13:45:16.832Z,10.18
2019-03-04T13:47:44.384Z,6.03
2019-03-04T13:50:14.578Z,2.85
2019-03-04T13:52:42.012Z,3.65
2019-03-04T13:55:09.474Z,7.60
2019-03-04T13:57:36.936Z,3.87
2019-03-04T14:00:05.434Z,4.92
2019-03-04T14:02:32.876Z,7.65
2019-03-04T14:05:00.297Z,2.70
2019-03-04T14:07:27.766Z,6.45
2019-03-04T14:09:55.196Z,7.55
2019-03-04T14:12:22.627Z,3.55
2019-03-04T14:14:50.082Z,3.22
2019-03-04T14:17:17.552Z,6.62
2019-03-04T14:19:44.986Z,3.15
2019-03-04T14:22:12.443Z,5.03
2019-03-04T14:24:39.881Z,5.30
2019-03-04T14:27:07.217Z,5.72
2019-03-04T14:29:34.679Z,4.10
2019-03-04T14:32:02.109Z,1.92
2019-03-04T14:34:29.538Z,4.92
2019-03-04T14:36:57.010Z,5.65
2019-03-04T14:39:24.440Z,3.17
2019-03-04T14:41:51.865Z,4.28
2019-03-04T14:44:19.325Z,13.68
2019-03-04T14:46:46.802Z,4.12
2019-03-04T14:49:14.237Z,5.97
2019-03-04T14:51:41.667Z,9.80
2019-03-04T14:54:09.085Z,4.80
2019-03-04T14:56:36.540Z,2.83
2019-03-04T14:59:10.921Z,8.20
2019-03-04T15:01:33.209Z,8.83
2019-03-04T15:04:00.660Z,7.00
2019-03-04T15:06:28.084Z,5.95
2019-03-04T15:08:55.509Z,4.55
2019-03-04T15:11:22.964Z,5.80
2019-03-04T15:13:50.388Z,5.47
2019-03-04T15:16:17.844Z,3.02
2019-03-04T15:18:45.296Z,3.30
2019-03-04T15:21:12.725Z,4.25
2019-03-04T15:23:40.139Z,3.17
2019-03-04T15:26:07.695Z,7.80
2019-03-04T15:28:35.133Z,3.15
2019-03-04T15:31:02.431Z,2.87
2019-03-04T15:33:29.893Z,4.00
2019-03-04T15:35:57.388Z,2.75
2019-03-04T15:38:24.820Z,2.27
2019-03-04T15:40:52.192Z,2.60
2019-03-04T15:43:19.647Z,4.97
2019-03-04T15:45:48.472Z,5.33
2019-03-04T15:48:16.824Z,9.80
2019-03-04T15:50:44.253Z,5.75
2019-03-04T15:53:11.669Z,5.60
2019-03-04T15:55:39.115Z,3.12
2019-03-04T15:58:06.777Z,7.05
2019-03-04T16:00:34.236Z,5.78
2019-03-04T16:03:01.669Z,6.55
2019-03-04T16:05:29.099Z,9.63
2019-03-04T16:08:06.801Z,7.83
2019-03-04T16:10:27.373Z,6.62
2019-03-04T16:12:54.813Z,12.68
2019-03-04T16:15:22.254Z,9.90
2019-03-04T16:17:49.717Z,11.73
2019-03-04T16:20:17.152Z,10.53
2019-03-04T16:22:45.028Z,9.98
2019-03-04T16:25:12.449Z,10.53
2019-03-04T16:27:39.870Z,6.40
2019-03-04T16:30:10.558Z,11.03
2019-03-04T16:32:37.980Z,5.95
2019-03-04T16:35:05.433Z,7.17
2019-03-04T16:37:32.904Z,11.50
2019-03-04T16:40:00.334Z,10.90
2019-03-04T16:42:27.768Z,11.85
2019-03-04T16:44:55.244Z,13.30
2019-03-04T16:47:22.672Z,13.85
2019-03-04T16:49:50.101Z,10.70
2019-03-04T16:52:18.169Z,10.45
2019-03-04T16:54:45.606Z,7.78
2019-03-04T16:57:13.107Z,14.95
2019-03-04T16:59:40.544Z,10.15
2019-03-04T17:02:07.982Z,11.25
2019-03-04T17:04:35.433Z,17.00
2019-03-04T17:07:02.876Z,13.20
2019-03-04T17:09:30.324Z,9.43
2019-03-04T17:11:57.786Z,10.32
2019-03-04T17:14:25.220Z,9.53
2019-03-04T17:16:52.653Z,9.05
2019-03-04T17:19:20.112Z,9.33
2019-03-04T17:21:47.557Z,8.23
2019-03-04T17:24:14.976Z,10.13
2019-03-04T17:26:42.440Z,12.13
2019-03-04T17:29:09.863Z,14.38
2019-03-04T17:31:37.293Z,11.25
2019-03-04T17:34:04.373Z,11.35
2019-03-04T17:36:31.558Z,7.80
2019-03-04T17:41:25.701Z,11.85
2019-03-04T17:43:53.161Z,13.58
2019-03-04T17:46:20.620Z,5.85
2019-03-04T17:48:48.039Z,11.60
2019-03-04T17:51:15.127Z,9.10
2019-03-04T17:53:42.576Z,10.13
2019-03-04T17:56:10.041Z,13.85
2019-03-04T17:58:37.365Z,12.37
2019-03-04T18:01:04.792Z,14.87
2019-03-04T18:03:32.258Z,9.35
2019-03-04T18:05:59.673Z,16.60
2019-03-04T18:08:27.104Z,10.18
2019-03-04T18:10:54.572Z,11.40
2019-03-04T18:13:22.000Z,8.75
2019-03-04T18:15:49.422Z,5.70
2019-03-04T18:18:16.877Z,5.35
2019-03-04T18:20:44.287Z,10.00
2019-03-04T18:23:11.720Z,5.25
2019-03-04T18:25:45.208Z,4.25
2019-03-04T18:28:20.696Z,8.43
2019-03-04T18:31:22.993Z,10.05
2019-03-04T18:34:33.351Z,4.08
2019-03-04T18:37:41.436Z,5.47
2019-03-04T18:40:23.274Z,4.40
2019-03-04T18:43:27.736Z,2.20
2019-03-04T18:46:40.319Z,3.12
2019-03-04T18:49:07.756Z,2.55
2019-03-04T18:51:35.393Z,4.33
2019-03-04T18:54:17.274Z,3.55
2019-03-04T18:56:44.704Z,4.87
2019-03-04T18:59:12.127Z,1.52
2019-03-04T19:01:39.557Z,7.17
2019-03-04T19:04:06.981Z,1.70
2019-03-04T19:06:34.436Z,1.90
2019-03-04T19:09:01.874Z,3.80
2019-03-04T19:11:29.314Z,4.53
2019-03-04T19:13:56.784Z,5.85
2019-03-04T19:16:24.225Z,4.12
2019-03-04T19:18:51.653Z,3.87
2019-03-04T19:21:19.120Z,2.72
2019-03-04T19:23:46.557Z,3.12
2019-03-04T19:26:14.090Z,7.50
2019-03-04T19:28:41.536Z,6.20
2019-03-04T19:31:09.005Z,6.72
2019-03-04T19:33:36.427Z,4.15
2019-03-04T19:36:03.623Z,8.58
2019-03-04T19:40:58.159Z,8.25
2019-03-04T19:43:32.659Z,13.05
2019-03-04T19:45:54.869Z,5.45
2019-03-04T19:48:22.328Z,6.95
2019-03-04T19:50:49.771Z,5.05
2019-03-04T19:53:17.257Z,6.42
2019-03-04T19:55:44.696Z,3.25
2019-03-04T19:58:12.132Z,7.05
2019-03-04T20:00:39.680Z,7.00
2019-03-04T20:03:07.015Z,9.13
2019-03-04T20:05:34.457Z,6.65
2019-03-04T20:08:02.000Z,7.28
2019-03-04T20:10:29.635Z,4.58
2019-03-04T20:12:57.197Z,8.80
2019-03-04T20:15:24.669Z,10.65
2019-03-04T20:17:52.118Z,7.85
2019-03-04T20:20:19.587Z,6.80
2019-03-04T20:22:47.021Z,7.20
2019-03-04T20:25:14.473Z,7.10
2019-03-04T20:27:41.941Z,12.15
2019-03-04T20:30:10.005Z,8.58
2019-03-04T20:32:37.444Z,7.33
2019-03-04T20:35:06.179Z,11.53
2019-03-04T20:37:33.608Z,10.05
2019-03-04T20:40:03.256Z,11.83
2019-03-04T20:42:30.305Z,13.60
2019-03-04T20:44:57.744Z,8.30
2019-03-04T20:47:25.176Z,10.30
2019-03-04T20:49:52.544Z,17.15
2019-03-04T20:52:19.999Z,8.90
2019-03-04T20:54:47.320Z,12.05
2019-03-04T20:57:14.776Z,14.78
2019-03-04T20:59:42.224Z,9.98
2019-03-04T21:02:09.648Z,15.20
2019-03-04T21:04:37.140Z,13.48
2019-03-04T21:07:04.571Z,14.45
2019-03-04T21:09:32.012Z,16.32
2019-03-04T21:11:59.473Z,15.35
2019-03-04T21:14:26.923Z,11.40
2019-03-04T21:16:54.352Z,13.38
2019-03-04T21:19:21.800Z,22.05
2019-03-04T21:21:49.293Z,14.68
2019-03-04T21:24:17.220Z,14.50
2019-03-04T21:26:47.213Z,20.00
2019-03-04T21:30:08.569Z,21.23
2019-03-04T21:32:59.674Z,17.42
2019-03-04T21:36:07.900Z,17.02
2019-03-04T21:38:35.313Z,22.45
2019-03-04T21:41:27.850Z,15.83
2019-03-04T21:44:35.596Z,20.82
2019-03-04T21:47:11.561Z,12.47
2019-03-04T21:49:42.706Z,22.95
2019-03-04T21:52:47.025Z,23.38
2019-03-04T21:55:21.793Z,17.05
2019-03-04T21:57:54.609Z,19.30
2019-03-04T22:00:37.186Z,19.55
2019-03-04T22:03:14.176Z,17.15
2019-03-04T22:05:49.744Z,17.85
2019-03-04T22:08:10.907Z,19.27
2019-03-04T22:10:38.353Z,15.50
2019-03-04T22:13:05.844Z,20.37
2019-03-04T22:15:33.257Z,16.37
2019-03-04T22:18:00.520Z,17.95
2019-03-04T22:20:27.948Z,20.02
2019-03-04T22:22:56.903Z,20.00
2019-03-04T22:25:24.368Z,15.93
2019-03-04T22:27:51.837Z,13.35
2019-03-04T22:30:19.269Z,16.67
2019-03-04T22:32:46.697Z,9.23
2019-03-04T22:35:14.160Z,14.63
2019-03-04T22:37:41.592Z,18.52
2019-03-04T22:40:11.530Z,11.68
2019-03-04T22:42:39.009Z,13.48
2019-03-04T22:45:08.960Z,15.20
2019-03-04T22:47:36.391Z,9.55
2019-03-04T22:50:04.600Z,12.40
2019-03-04T22:52:31.829Z,8.35
2019-03-04T22:54:59.160Z,14.80
2019-03-04T22:57:26.620Z,10.68
2019-03-04T22:59:54.049Z,7.45
2019-03-04T23:02:21.511Z,17.77
2019-03-04T23:05:09.809Z,3.58
2019-03-04T23:13:20.689Z,6.60
2019-03-04T23:15:49.897Z,11.40
2019-03-04T23:18:17.377Z,9.00
2019-03-04T23:20:44.749Z,9.23
2019-03-04T23:23:12.197Z,9.70
2019-03-04T23:25:39.629Z,4.75
2019-03-04T23:28:07.085Z,6.22
2019-03-04T23:30:34.503Z,7.08
2019-03-04T23:33:01.930Z,6.95
2019-03-04T23:35:29.373Z,6.53
2019-03-04T23:37:56.800Z,2.50
2019-03-04T23:40:24.238Z,6.20
2019-03-04T23:42:51.687Z,4.08
2019-03-04T23:45:19.058Z,5.67
2019-03-04T23:47:46.472Z,4.10
2019-03-04T23:50:16.655Z,4.87
2019-03-04T23:52:44.184Z,5.33
2019-03-04T23:55:11.629Z,5.40
2019-03-04T23:57:39.072Z,3.75
